createdAt,value
2023-04-16T00:00:56.996Z,10.61
2023-04-16T00:03:25.096Z,10.65
2023-04-16T00:05:55.636Z,10.59
2023-04-16T00:08:24.571Z,10.48
2023-04-16T00:10:52.240Z,10.49
2023-04-16T00:13:20.011Z,10.49
2023-04-16T00:15:49.037Z,10.51
2023-04-16T00:18:16.659Z,10.52
2023-04-16T00:20:44.286Z,10.55
2023-04-16T00:23:11.962Z,10.56
2023-04-16T00:25:39.590Z,10.57
2023-04-16T00:28:07.359Z,10.57
2023-04-16T00:30:35.883Z,10.52
2023-04-16T00:33:05.598Z,10.34
2023-04-16T00:35:46.509Z,10.26
2023-04-16T00:38:14.827Z,10.26
2023-04-16T00:40:42.480Z,10.25
2023-04-16T00:43:10.581Z,10.17
2023-04-16T00:45:38.336Z,10.12
2023-04-16T00:48:07.500Z,10.17
2023-04-16T00:50:38.394Z,10.09
2023-04-16T00:53:06.280Z,10.11
2023-04-16T00:55:33.947Z,10.12
2023-04-16T00:58:01.570Z,10.14
2023-04-16T01:00:29.336Z,10.08
2023-04-16T01:02:57.594Z,10.10
2023-04-16T01:05:26.958Z,10.07
2023-04-16T01:07:54.599Z,9.98
2023-04-16T01:10:26.080Z,10.02
2023-04-16T01:12:53.761Z,10.02
2023-04-16T01:15:21.429Z,10.09
2023-04-16T01:17:49.399Z,10.04
2023-04-16T01:20:25.926Z,10.07
2023-04-16T01:22:57.249Z,10.05
2023-04-16T01:25:27.250Z,10.02
2023-04-16T01:27:57.291Z,9.98
2023-04-16T01:30:25.030Z,9.93
2023-04-16T01:32:52.784Z,9.90
2023-04-16T01:35:20.490Z,9.90
2023-04-16T01:37:48.149Z,9.88
2023-04-16T01:40:17.330Z,9.84
2023-04-16T01:42:45.109Z,9.79
2023-04-16T01:45:15.863Z,9.81
2023-04-16T01:47:43.811Z,9.72
2023-04-16T01:50:12.714Z,9.66
2023-04-16T01:52:41.471Z,9.70
2023-04-16T01:55:10.075Z,9.75
2023-04-16T01:57:38.965Z,9.78
2023-04-16T02:00:08.393Z,9.83
2023-04-16T02:02:36.863Z,9.73
2023-04-16T02:05:05.344Z,9.55
2023-04-16T02:07:33.085Z,9.51
2023-04-16T02:10:00.773Z,9.46
2023-04-16T02:12:28.576Z,9.40
2023-04-16T02:14:58.120Z,9.38
2023-04-16T02:17:31.556Z,9.29
2023-04-16T02:19:59.955Z,9.35
2023-04-16T02:22:27.619Z,9.36
2023-04-16T02:24:55.383Z,9.23
2023-04-16T02:27:23.077Z,9.17
2023-04-16T02:29:50.911Z,9.12
2023-04-16T02:32:20.853Z,9.14
2023-04-16T02:34:48.522Z,9.21
2023-04-16T02:37:16.272Z,9.21
2023-04-16T02:39:43.949Z,9.19
2023-04-16T02:42:11.612Z,9.24
2023-04-16T02:44:39.223Z,9.22
2023-04-16T02:47:06.922Z,9.08
2023-04-16T02:49:36.629Z,9.08
2023-04-16T02:52:04.764Z,9.14
2023-04-16T02:54:32.407Z,9.19
2023-04-16T02:57:00.020Z,9.21
2023-04-16T02:59:27.670Z,9.25
2023-04-16T03:01:57.311Z,9.30
2023-04-16T03:04:25.802Z,9.30
2023-04-16T03:06:54.860Z,9.26
2023-04-16T03:09:22.505Z,9.16
2023-04-16T03:11:50.214Z,9.11
2023-04-16T03:14:17.941Z,9.09
2023-04-16T03:16:45.610Z,9.21
2023-04-16T03:19:13.321Z,9.23
2023-04-16T03:21:40.991Z,9.20
2023-04-16T03:24:10.006Z,9.26
2023-04-16T03:26:37.693Z,9.30
2023-04-16T03:29:05.396Z,9.31
2023-04-16T03:31:33.219Z,9.30
2023-04-16T03:34:01.084Z,9.26
2023-04-16T03:36:28.695Z,9.26
2023-04-16T03:38:56.371Z,9.31
2023-04-16T03:41:25.415Z,9.25
2023-04-16T03:43:53.099Z,9.20
2023-04-16T03:46:20.914Z,9.04
2023-04-16T03:48:48.639Z,9.03
2023-04-16T03:51:16.352Z,8.98
2023-04-16T03:53:44.013Z,8.98
2023-04-16T03:56:11.660Z,8.90
2023-04-16T03:58:40.755Z,8.89
2023-04-16T04:01:08.462Z,8.94
2023-04-16T04:03:36.341Z,8.90
2023-04-16T04:06:07.863Z,8.98
2023-04-16T04:08:35.649Z,8.98
2023-04-16T04:11:03.257Z,8.96
2023-04-16T04:13:31.001Z,8.99
2023-04-16T04:16:00.277Z,8.96
2023-04-16T04:18:28.072Z,8.93
2023-04-16T04:20:55.788Z,8.91
2023-04-16T04:23:23.554Z,8.87
2023-04-16T04:25:51.389Z,8.81
2023-04-16T04:28:19.118Z,8.77
2023-04-16T04:30:46.792Z,8.78
2023-04-16T04:33:15.850Z,8.71
2023-04-16T04:35:43.464Z,8.76
2023-04-16T04:38:11.221Z,8.77
2023-04-16T04:40:39.222Z,8.73
2023-04-16T04:43:06.859Z,8.77
2023-04-16T04:45:34.605Z,8.84
2023-04-16T04:48:02.358Z,8.90
2023-04-16T04:50:31.483Z,8.85
2023-04-16T04:52:59.070Z,8.82
2023-04-16T04:55:26.866Z,8.84
2023-04-16T04:57:54.543Z,8.93
2023-04-16T05:00:22.303Z,8.98
2023-04-16T05:02:51.083Z,9.00
2023-04-16T05:05:18.913Z,8.97
2023-04-16T05:07:47.944Z,8.98
2023-04-16T05:10:15.714Z,8.96
2023-04-16T05:12:43.468Z,8.94
2023-04-16T05:15:11.682Z,8.93
2023-04-16T05:17:39.302Z,8.95
2023-04-16T05:20:11.187Z,8.92
2023-04-16T05:22:38.884Z,8.89
2023-04-16T05:25:08.777Z,8.95
2023-04-16T05:27:36.978Z,8.94
2023-04-16T05:30:04.979Z,8.95
2023-04-16T05:32:32.693Z,8.97
2023-04-16T05:35:00.444Z,8.93
2023-04-16T05:37:28.405Z,8.91
2023-04-16T05:39:56.061Z,8.97
2023-04-16T05:42:27.518Z,9.02
2023-04-16T05:44:55.430Z,8.98
2023-04-16T05:47:25.443Z,9.00
2023-04-16T05:49:53.130Z,8.99
2023-04-16T05:52:20.871Z,8.94
2023-04-16T05:54:48.798Z,8.92
2023-04-16T05:57:16.576Z,8.88
2023-04-16T05:59:45.630Z,8.82
2023-04-16T06:02:13.790Z,8.86
2023-04-16T06:04:50.724Z,8.96
2023-04-16T06:07:18.948Z,9.02
2023-04-16T06:09:46.693Z,9.09
2023-04-16T06:12:14.459Z,9.09
2023-04-16T06:14:42.154Z,9.06
2023-04-16T06:17:11.228Z,9.09
2023-04-16T06:19:38.911Z,9.09
2023-04-16T06:22:08.417Z,9.03
2023-04-16T06:24:36.594Z,8.98
2023-04-16T06:27:04.407Z,9.00
2023-04-16T06:29:40.445Z,9.07
2023-04-16T06:32:09.791Z,9.11
2023-04-16T06:34:39.830Z,9.05
2023-04-16T06:37:10.366Z,9.06
2023-04-16T06:39:38.382Z,9.09
2023-04-16T06:42:08.076Z,9.07
2023-04-16T06:44:36.637Z,9.05
2023-04-16T06:47:04.645Z,9.07
2023-04-16T06:49:32.553Z,9.07
2023-04-16T06:52:03.845Z,9.08
2023-04-16T06:54:33.414Z,9.10
2023-04-16T06:57:01.083Z,9.12
2023-04-16T06:59:28.774Z,9.12
2023-04-16T07:01:56.505Z,9.19
2023-04-16T07:04:24.328Z,9.22
2023-04-16T07:06:52.997Z,9.19
2023-04-16T07:09:23.035Z,9.21
2023-04-16T07:11:51.331Z,9.22
2023-04-16T07:14:19.029Z,9.19
2023-04-16T07:16:46.827Z,9.10
2023-04-16T07:19:14.544Z,9.09
2023-04-16T07:21:43.692Z,9.21
2023-04-16T07:24:11.770Z,9.25
2023-04-16T07:26:41.090Z,9.30
2023-04-16T07:29:11.280Z,9.32
2023-04-16T07:31:39.744Z,9.33
2023-04-16T07:34:07.488Z,9.38
2023-04-16T07:36:35.189Z,9.36
2023-04-16T07:39:02.873Z,9.31
2023-04-16T07:41:30.982Z,9.31
2023-04-16T07:43:59.876Z,9.35
2023-04-16T07:46:33.160Z,9.34
2023-04-16T07:49:07.619Z,9.34
2023-04-16T07:51:37.514Z,9.34
2023-04-16T07:54:05.350Z,9.31
2023-04-16T07:56:33.017Z,9.36
2023-04-16T07:59:14.372Z,9.43
2023-04-16T08:01:49.402Z,9.44
2023-04-16T08:04:22.978Z,9.40
2023-04-16T08:06:51.325Z,9.44
2023-04-16T08:09:20.149Z,9.41
2023-04-16T08:11:49.186Z,9.44
2023-04-16T08:14:18.272Z,9.45
2023-04-16T08:16:45.955Z,9.48
2023-04-16T08:19:13.728Z,9.48
2023-04-16T08:21:41.663Z,9.54
2023-04-16T08:24:09.269Z,9.65
2023-04-16T08:26:36.907Z,9.74
2023-04-16T08:29:04.688Z,9.78
2023-04-16T08:31:34.083Z,9.69
2023-04-16T08:34:01.986Z,9.70
2023-04-16T08:36:29.737Z,9.74
2023-04-16T08:38:57.344Z,9.82
2023-04-16T08:41:27.924Z,9.90
2023-04-16T08:43:57.305Z,9.86
2023-04-16T08:46:26.520Z,9.84
2023-04-16T08:48:56.729Z,9.76
2023-04-16T08:51:24.895Z,9.69
2023-04-16T08:53:54.749Z,9.63
2023-04-16T08:56:24.930Z,9.57
2023-04-16T08:58:56.246Z,9.58
2023-04-16T09:01:26.625Z,9.57
2023-04-16T09:03:56.747Z,9.64
2023-04-16T09:06:24.738Z,9.68
2023-04-16T09:08:55.025Z,9.69
2023-04-16T09:11:22.766Z,9.66
2023-04-16T09:13:50.662Z,9.65
2023-04-16T09:16:19.540Z,9.66
2023-04-16T09:18:47.781Z,9.61
2023-04-16T09:21:17.208Z,9.58
2023-04-16T09:23:44.944Z,9.64
2023-04-16T09:26:12.687Z,9.66
2023-04-16T09:28:41.768Z,9.68
2023-04-16T09:31:14.867Z,9.60
2023-04-16T09:33:43.444Z,9.63
2023-04-16T09:36:11.856Z,9.57
2023-04-16T09:38:51.783Z,9.60
2023-04-16T09:41:25.292Z,9.69
2023-04-16T09:43:57.719Z,9.72
2023-04-16T09:46:30.821Z,9.70
2023-04-16T09:49:01.033Z,9.72
2023-04-16T09:51:37.990Z,9.73
2023-04-16T09:54:07.488Z,9.75
2023-04-16T09:56:40.330Z,9.79
2023-04-16T09:59:17.583Z,9.77
2023-04-16T10:01:46.712Z,9.76
2023-04-16T10:04:14.631Z,9.75
2023-04-16T10:06:44.116Z,9.74
2023-04-16T10:09:13.457Z,9.79
2023-04-16T10:11:41.465Z,9.83
2023-04-16T10:14:09.960Z,9.85
2023-04-16T10:16:41.046Z,9.88
2023-04-16T10:19:09.898Z,9.76
2023-04-16T10:21:37.892Z,9.72
2023-04-16T10:24:06.277Z,9.72
2023-04-16T10:26:37.026Z,9.70
2023-04-16T10:29:07.254Z,9.65
2023-04-16T10:31:36.874Z,9.60
2023-04-16T10:34:04.870Z,9.54
2023-04-16T10:36:36.956Z,9.59
2023-04-16T10:39:05.531Z,9.59
2023-04-16T10:41:35.572Z,9.62
2023-04-16T10:44:09.394Z,9.65
2023-04-16T10:46:39.515Z,9.69
2023-04-16T10:49:15.007Z,9.77
2023-04-16T10:51:43.302Z,9.76
2023-04-16T10:54:22.150Z,9.82
2023-04-16T10:56:51.866Z,9.87
2023-04-16T10:59:20.613Z,9.81
2023-04-16T11:01:49.862Z,9.87
2023-04-16T11:04:31.015Z,9.88
2023-04-16T11:07:06.487Z,9.93
2023-04-16T11:09:53.236Z,9.92
2023-04-16T11:12:24.204Z,9.95
2023-04-16T11:14:54.172Z,9.98
2023-04-16T11:17:23.289Z,9.98
2023-04-16T11:19:53.514Z,9.95
2023-04-16T11:22:21.603Z,9.97
2023-04-16T11:24:55.706Z,10.00
2023-04-16T11:27:26.385Z,10.01
2023-04-16T11:30:01.868Z,10.01
2023-04-16T11:32:32.524Z,9.99
2023-04-16T11:35:03.450Z,9.99
2023-04-16T11:37:34.899Z,9.98
2023-04-16T11:40:04.815Z,9.96
2023-04-16T11:42:37.149Z,9.99
2023-04-16T11:45:06.140Z,10.06
2023-04-16T11:47:42.989Z,10.00
2023-04-16T11:50:21.902Z,10.01
2023-04-16T11:52:50.516Z,10.03
2023-04-16T11:55:18.536Z,10.08
2023-04-16T11:57:47.728Z,10.17
2023-04-16T12:00:16.119Z,10.22
2023-04-16T12:02:46.040Z,10.26
2023-04-16T12:05:31.877Z,10.28
2023-04-16T12:08:01.538Z,10.35
2023-04-16T12:10:30.061Z,10.33
2023-04-16T12:13:13.469Z,10.33
2023-04-16T12:15:48.542Z,10.33
2023-04-16T12:18:16.761Z,10.37
2023-04-16T12:20:45.797Z,10.41
2023-04-16T12:23:24.059Z,10.45
2023-04-16T12:25:52.059Z,10.42
2023-04-16T12:28:30.351Z,10.44
2023-04-16T12:30:58.085Z,10.46
2023-04-16T12:33:28.194Z,10.50
2023-04-16T12:35:56.404Z,10.53
2023-04-16T12:38:25.578Z,10.52
2023-04-16T12:40:56.666Z,10.58
2023-04-16T12:43:24.903Z,10.65
2023-04-16T12:45:53.977Z,10.74
2023-04-16T12:48:21.870Z,10.84
2023-04-16T12:50:49.493Z,10.94
2023-04-16T12:53:17.227Z,11.03
2023-04-16T12:55:45.340Z,11.13
2023-04-16T12:58:13.151Z,11.24
2023-04-16T13:00:41.174Z,11.42
2023-04-16T13:03:14.271Z,11.55
2023-04-16T13:05:42.267Z,11.60
2023-04-16T13:08:09.984Z,11.70
2023-04-16T13:10:38.050Z,11.82
2023-04-16T13:13:06.418Z,11.90
2023-04-16T13:15:34.486Z,11.97
2023-04-16T13:18:02.307Z,11.99
2023-04-16T13:20:31.401Z,12.01
2023-04-16T13:22:59.784Z,12.06
2023-04-16T13:25:27.702Z,12.12
2023-04-16T13:27:55.474Z,12.22
2023-04-16T13:30:25.395Z,12.25
2023-04-16T13:32:53.141Z,12.41
2023-04-16T13:35:20.843Z,12.49
2023-04-16T13:37:49.760Z,12.72
2023-04-16T13:40:17.732Z,13.02
2023-04-16T13:42:45.322Z,13.07
2023-04-16T13:45:12.891Z,13.05
2023-04-16T13:47:42.390Z,13.07
2023-04-16T13:50:10.988Z,12.91
2023-04-16T13:52:40.982Z,12.87
2023-04-16T13:55:13.661Z,12.83
2023-04-16T13:57:41.546Z,12.80
2023-04-16T14:00:12.564Z,12.92
2023-04-16T14:02:41.138Z,12.82
2023-04-16T14:05:09.333Z,12.75
2023-04-16T14:07:40.990Z,12.70
2023-04-16T14:10:11.269Z,12.64
2023-04-16T14:12:39.273Z,12.62
2023-04-16T14:15:09.623Z,12.56
2023-04-16T14:17:37.942Z,12.53
2023-04-16T14:20:06.933Z,12.47
2023-04-16T14:22:34.665Z,12.36
2023-04-16T14:25:03.392Z,12.32
2023-04-16T14:27:32.566Z,12.35
2023-04-16T14:30:00.406Z,12.34
2023-04-16T14:32:28.671Z,12.37
2023-04-16T14:34:56.411Z,12.40
2023-04-16T14:37:24.130Z,12.38
2023-04-16T14:39:51.908Z,12.33
2023-04-16T14:42:19.568Z,12.35
2023-04-16T14:44:48.875Z,12.37
2023-04-16T14:47:16.499Z,12.41
2023-04-16T14:49:45.856Z,12.45
2023-04-16T14:52:16.865Z,12.44
2023-04-16T14:54:44.548Z,12.47
2023-04-16T14:57:12.144Z,12.41
2023-04-16T14:59:39.829Z,12.39
2023-04-16T15:02:10.351Z,12.37
2023-04-16T15:04:38.349Z,12.35
2023-04-16T15:07:06.060Z,12.38
2023-04-16T15:09:34.833Z,12.33
2023-04-16T15:12:02.763Z,12.30
2023-04-16T15:14:30.424Z,12.29
2023-04-16T15:16:58.109Z,12.30
2023-04-16T15:19:27.786Z,12.34
2023-04-16T15:21:55.869Z,12.33
2023-04-16T15:24:23.623Z,12.37
2023-04-16T15:26:51.386Z,12.39
2023-04-16T15:29:18.940Z,12.33
2023-04-16T15:31:46.611Z,12.32
2023-04-16T15:34:14.292Z,12.32
2023-04-16T15:36:43.428Z,12.33
2023-04-16T15:39:11.682Z,12.26
2023-04-16T15:41:53.387Z,12.24
2023-04-16T15:44:27.269Z,12.23
2023-04-16T15:46:55.202Z,12.25
2023-04-16T15:49:23.346Z,12.33
2023-04-16T15:51:52.546Z,12.36
2023-04-16T15:54:20.282Z,12.40
2023-04-16T15:56:48.125Z,12.40
2023-04-16T15:59:15.986Z,12.47
2023-04-16T16:01:43.640Z,12.53
2023-04-16T16:04:11.916Z,12.62
2023-04-16T16:06:39.573Z,12.64
2023-04-16T16:09:08.981Z,12.65
2023-04-16T16:11:40.587Z,12.64
2023-04-16T16:14:08.521Z,12.56
2023-04-16T16:16:36.441Z,12.58
2023-04-16T16:19:05.876Z,12.57
2023-04-16T16:21:34.776Z,12.55
2023-04-16T16:24:02.509Z,12.53
2023-04-16T16:26:31.958Z,12.53
2023-04-16T16:28:59.663Z,12.53
2023-04-16T16:31:27.392Z,12.48
2023-04-16T16:33:55.076Z,12.46
2023-04-16T16:36:22.875Z,12.43
2023-04-16T16:38:50.489Z,12.33
2023-04-16T16:41:18.115Z,12.35
2023-04-16T16:43:47.105Z,12.34
2023-04-16T16:46:14.923Z,12.24
2023-04-16T16:48:42.825Z,12.20
2023-04-16T16:51:11.072Z,12.14
2023-04-16T16:53:38.650Z,12.11
2023-04-16T16:56:06.913Z,12.07
2023-04-16T16:58:34.615Z,12.05
2023-04-16T17:01:03.712Z,12.02
2023-04-16T17:03:32.924Z,12.00
2023-04-16T17:06:01.084Z,11.99
2023-04-16T17:08:29.192Z,11.98
2023-04-16T17:10:56.844Z,12.01
2023-04-16T17:13:25.280Z,12.05
2023-04-16T17:15:53.170Z,11.99
2023-04-16T17:18:23.818Z,11.94
2023-04-16T17:20:51.529Z,11.87
2023-04-16T17:23:19.190Z,11.86
2023-04-16T17:25:47.052Z,11.81
2023-04-16T17:28:14.870Z,11.80
2023-04-16T17:30:42.553Z,11.75
2023-04-16T17:33:10.491Z,11.76
2023-04-16T17:35:40.490Z,11.74
2023-04-16T17:38:08.350Z,11.69
2023-04-16T17:40:36.201Z,11.66
2023-04-16T17:43:03.780Z,11.70
2023-04-16T17:45:31.642Z,11.65
2023-04-16T17:47:59.878Z,11.62
2023-04-16T17:50:27.946Z,11.57
2023-04-16T17:52:58.097Z,11.55
2023-04-16T17:55:27.178Z,11.51
2023-04-16T17:57:56.454Z,11.46
2023-04-16T18:00:24.172Z,11.50
2023-04-16T18:02:52.481Z,11.47
2023-04-16T18:05:21.757Z,11.45
2023-04-16T18:07:50.485Z,11.41
2023-04-16T18:10:22.333Z,11.34
2023-04-16T18:12:50.068Z,11.37
2023-04-16T18:15:17.968Z,11.40
2023-04-16T18:17:46.132Z,11.41
2023-04-16T18:20:16.866Z,11.34
2023-04-16T18:22:44.500Z,11.30
2023-04-16T18:25:12.232Z,11.34
2023-04-16T18:27:41.868Z,11.49
2023-04-16T18:30:20.101Z,11.59
2023-04-16T18:33:16.601Z,11.66
2023-04-16T18:35:41.604Z,11.57
2023-04-16T18:38:09.557Z,11.51
2023-04-16T18:40:38.092Z,11.55
2023-04-16T18:43:07.591Z,11.43
2023-04-16T18:45:36.247Z,11.35
2023-04-16T18:48:04.318Z,11.33
2023-04-16T18:50:32.631Z,11.29
2023-04-16T18:53:00.504Z,11.24
2023-04-16T18:55:28.624Z,11.19
2023-04-16T18:57:57.637Z,11.14
2023-04-16T19:00:26.772Z,11.02
2023-04-16T19:02:55.778Z,11.04
2023-04-16T19:05:23.635Z,11.00
2023-04-16T19:07:51.229Z,11.05
2023-04-16T19:10:19.036Z,11.08
2023-04-16T19:12:49.315Z,11.08
2023-04-16T19:15:17.028Z,11.00
2023-04-16T19:17:46.715Z,10.98
2023-04-16T19:20:15.264Z,10.92
2023-04-16T19:22:43.238Z,10.93
2023-04-16T19:25:11.282Z,10.91
2023-04-16T19:27:38.902Z,10.91
2023-04-16T19:30:10.520Z,10.90
2023-04-16T19:32:38.528Z,10.90
2023-04-16T19:35:08.306Z,10.90
2023-04-16T19:37:36.291Z,10.87
2023-04-16T19:40:05.980Z,10.88
2023-04-16T19:42:34.078Z,10.88
2023-04-16T19:45:03.060Z,10.87
2023-04-16T19:47:30.936Z,10.84
2023-04-16T19:49:58.806Z,10.81
2023-04-16T19:52:30.557Z,10.79
2023-04-16T19:54:58.325Z,10.82
2023-04-16T19:57:26.068Z,10.83
2023-04-16T19:59:55.104Z,10.91
2023-04-16T20:02:23.239Z,10.92
2023-04-16T20:04:53.077Z,10.99
2023-04-16T20:07:20.819Z,10.96
2023-04-16T20:09:50.879Z,10.92
2023-04-16T20:12:18.548Z,10.88
2023-04-16T20:14:50.797Z,10.83
2023-04-16T20:17:20.974Z,10.81
2023-04-16T20:19:49.608Z,10.83
2023-04-16T20:22:18.610Z,10.77
2023-04-16T20:24:50.644Z,10.76
2023-04-16T20:27:20.871Z,10.67
2023-04-16T20:29:49.164Z,10.69
2023-04-16T20:32:17.934Z,10.69
2023-04-16T20:34:46.026Z,10.69
2023-04-16T20:37:13.929Z,10.69
2023-04-16T20:39:44.524Z,10.68
2023-04-16T20:42:12.796Z,10.64
2023-04-16T20:44:41.769Z,10.65
2023-04-16T20:47:10.072Z,10.66
2023-04-16T20:49:38.395Z,10.65
2023-04-16T20:52:07.312Z,10.65
2023-04-16T20:54:35.151Z,10.62
2023-04-16T20:57:04.731Z,10.66
2023-04-16T20:59:32.704Z,10.66
2023-04-16T21:02:01.794Z,10.71
2023-04-16T21:04:29.775Z,10.67
2023-04-16T21:06:57.533Z,10.68
2023-04-16T21:09:25.294Z,10.67
2023-04-16T21:11:52.979Z,10.62
2023-04-16T21:14:20.790Z,10.62
2023-04-16T21:16:48.444Z,10.61
2023-04-16T21:19:17.461Z,10.59
2023-04-16T21:21:45.383Z,10.61
2023-04-16T21:24:13.027Z,10.58
2023-04-16T21:26:40.817Z,10.58
2023-04-16T21:29:08.511Z,10.57
2023-04-16T21:31:36.565Z,10.57
2023-04-16T21:34:04.251Z,10.54
2023-04-16T21:36:34.003Z,10.53
2023-04-16T21:39:02.099Z,10.47
2023-04-16T21:41:29.723Z,10.47
2023-04-16T21:43:57.478Z,10.48
2023-04-16T21:46:26.296Z,10.47
2023-04-16T21:48:54.014Z,10.47
2023-04-16T21:51:28.881Z,10.45
2023-04-16T21:53:58.352Z,10.45
2023-04-16T21:56:26.371Z,10.42
2023-04-16T21:58:54.073Z,10.43
2023-04-16T22:01:22.045Z,10.42
2023-04-16T22:03:51.790Z,10.41
2023-04-16T22:06:20.332Z,10.40
2023-04-16T22:08:49.650Z,10.38
2023-04-16T22:11:18.621Z,10.35
2023-04-16T22:13:47.816Z,10.35
2023-04-16T22:16:15.708Z,10.31
2023-04-16T22:18:43.510Z,10.29
2023-04-16T22:21:11.388Z,10.29
2023-04-16T22:23:39.015Z,10.29
2023-04-16T22:26:06.921Z,10.28
2023-04-16T22:28:35.985Z,10.27
2023-04-16T22:31:03.782Z,10.26
2023-04-16T22:33:31.621Z,10.24
2023-04-16T22:36:00.405Z,10.27
2023-04-16T22:38:28.086Z,10.26
2023-04-16T22:40:55.868Z,10.23
2023-04-16T22:43:23.862Z,10.22
2023-04-16T22:46:04.802Z,10.15
2023-04-16T22:48:33.836Z,10.18
2023-04-16T22:51:01.704Z,10.19
2023-04-16T22:53:29.608Z,10.18
2023-04-16T22:55:57.337Z,10.20
2023-04-16T22:58:25.436Z,10.16
2023-04-16T23:00:56.737Z,10.11
2023-04-16T23:03:24.801Z,10.11
2023-04-16T23:05:52.691Z,10.09
2023-04-16T23:08:21.529Z,10.05
2023-04-16T23:10:49.693Z,10.07
2023-04-16T23:13:17.370Z,10.11
2023-04-16T23:15:47.152Z,10.16
2023-04-16T23:18:16.259Z,10.16
2023-04-16T23:20:43.856Z,10.13
2023-04-16T23:23:11.469Z,10.11
2023-04-16T23:25:41.728Z,10.14
2023-04-16T23:28:09.357Z,10.18
2023-04-16T23:30:37.176Z,10.10
2023-04-16T23:33:05.042Z,10.08
2023-04-16T23:35:34.054Z,10.03
2023-04-16T23:38:01.706Z,10.01
2023-04-16T23:40:29.371Z,10.02
2023-04-16T23:42:57.103Z,9.99
2023-04-16T23:45:24.897Z,9.97
2023-04-16T23:47:52.574Z,9.95
2023-04-16T23:50:21.730Z,9.92
2023-04-16T23:52:50.935Z,9.94
2023-04-16T23:55:18.534Z,9.90
2023-04-16T23:57:46.245Z,9.86
